Terminal Aerodrome Forecast
Issued by NWS Bismarck, ND

Home | Current Version | Previous Version | Text Only | Print | Product List | Glossary Off
Versions: 1 2 3 4 5 6 7 8 9 10 11 12 13 14 15 16 17 18 19 20 21

000
FTUS43 KBIS 282300
TAFBIS
TAF
KBIS 282337Z 2900/2924 30012KT P6SM SCT025 OVC035
     FM290300 32005KT P6SM OVC060
     FM290700 00000KT 3SM BR SCT200
     FM291200 14006KT P6SM SCT130
     FM291700 18010KT P6SM BKN100
     FM292100 18009KT P6SM SCT070=

USA.gov is the U.S. government's official web portal to all federal, state and local government web resources and services.